sensor_id;sensor_type;location;lat;lon;timestamp;pressure;altitude;pressure_sealevel;temperature;humidity
59951;BME280;45812;53.540;9.774;2023-04-20T00:00:21;102267.34;;;11.66;41.21
59951;BME280;45812;53.540;9.774;2023-04-20T00:02:46;102282.34;;;11.57;40.14
59951;BME280;45812;53.540;9.774;2023-04-20T00:05:11;102268.81;;;11.49;40.81
59951;BME280;45812;53.540;9.774;2023-04-20T00:07:37;102273.03;;;11.51;41.73
59951;BME280;45812;53.540;9.774;2023-04-20T00:10:03;102272.19;;;11.51;41.47
59951;BME280;45812;53.540;9.774;2023-04-20T00:12:28;102254.13;;;11.55;42.31
59951;BME280;45812;53.540;9.774;2023-04-20T00:14:54;102273.88;;;11.52;41.97
59951;BME280;45812;53.540;9.774;2023-04-20T00:17:20;102254.63;;;11.48;42.80
59951;BME280;45812;53.540;9.774;2023-04-20T00:19:45;102260.94;;;11.47;43.81
59951;BME280;45812;53.540;9.774;2023-04-20T00:22:11;102259.53;;;11.43;43.09
59951;BME280;45812;53.540;9.774;2023-04-20T00:24:36;102257.13;;;11.40;42.09
59951;BME280;45812;53.540;9.774;2023-04-20T00:27:02;102261.47;;;11.41;43.36
59951;BME280;45812;53.540;9.774;2023-04-20T00:29:27;102266.81;;;11.41;42.14
59951;BME280;45812;53.540;9.774;2023-04-20T00:31:52;102262.19;;;11.43;43.63
59951;BME280;45812;53.540;9.774;2023-04-20T00:34:17;102266.28;;;11.47;43.05
59951;BME280;45812;53.540;9.774;2023-04-20T00:36:43;102265.03;;;11.51;43.12
59951;BME280;45812;53.540;9.774;2023-04-20T00:39:08;102266.00;;;11.50;43.62
59951;BME280;45812;53.540;9.774;2023-04-20T00:41:34;102264.44;;;11.48;44.83
59951;BME280;45812;53.540;9.774;2023-04-20T00:44:00;102271.59;;;11.47;45.33
59951;BME280;45812;53.540;9.774;2023-04-20T00:46:25;102264.84;;;11.43;44.77
59951;BME280;45812;53.540;9.774;2023-04-20T00:48:52;102264.16;;;11.41;45.66
59951;BME280;45812;53.540;9.774;2023-04-20T00:51:19;102269.88;;;11.37;47.25
59951;BME280;45812;53.540;9.774;2023-04-20T00:53:45;102271.09;;;11.33;48.23
59951;BME280;45812;53.540;9.774;2023-04-20T00:56:12;102263.91;;;11.23;47.43
59951;BME280;45812;53.540;9.774;2023-04-20T00:58:37;102253.78;;;11.17;47.85
59951;BME280;45812;53.540;9.774;2023-04-20T01:01:02;102247.00;;;11.13;48.43
59951;BME280;45812;53.540;9.774;2023-04-20T01:03:28;102252.47;;;11.12;48.54
59951;BME280;45812;53.540;9.774;2023-04-20T01:05:54;102240.25;;;11.09;47.90
59951;BME280;45812;53.540;9.774;2023-04-20T01:08:19;102224.25;;;11.09;49.38
59951;BME280;45812;53.540;9.774;2023-04-20T01:10:45;102237.44;;;11.11;50.75
59951;BME280;45812;53.540;9.774;2023-04-20T01:13:10;102235.75;;;11.10;51.18
59951;BME280;45812;53.540;9.774;2023-04-20T01:15:36;102233.34;;;11.07;52.09
59951;BME280;45812;53.540;9.774;2023-04-20T01:18:01;102217.91;;;11.01;51.46
59951;BME280;45812;53.540;9.774;2023-04-20T01:20:27;102214.75;;;10.96;50.76
59951;BME280;45812;53.540;9.774;2023-04-20T01:22:52;102209.69;;;10.92;51.97
59951;BME280;45812;53.540;9.774;2023-04-20T01:25:19;102220.50;;;10.91;51.56
59951;BME280;45812;53.540;9.774;2023-04-20T01:27:44;102218.81;;;10.90;51.00
59951;BME280;45812;53.540;9.774;2023-04-20T01:30:10;102211.66;;;10.90;51.07
59951;BME280;45812;53.540;9.774;2023-04-20T01:32:35;102215.03;;;10.92;51.90
59951;BME280;45812;53.540;9.774;2023-04-20T01:35:02;102216.59;;;10.95;52.50
59951;BME280;45812;53.540;9.774;2023-04-20T01:37:27;102215.75;;;10.95;54.13
59951;BME280;45812;53.540;9.774;2023-04-20T01:39:53;102207.75;;;10.95;53.99
59951;BME280;45812;53.540;9.774;2023-04-20T01:42:19;102217.56;;;10.94;55.09
59951;BME280;45812;53.540;9.774;2023-04-20T01:44:44;102210.09;;;10.88;55.32
59951;BME280;45812;53.540;9.774;2023-04-20T01:47:09;102206.59;;;10.87;55.89
59951;BME280;45812;53.540;9.774;2023-04-20T01:49:34;102199.56;;;10.86;56.49
59951;BME280;45812;53.540;9.774;2023-04-20T01:52:00;102200.56;;;10.85;56.94
59951;BME280;45812;53.540;9.774;2023-04-20T01:54:25;102212.19;;;10.84;56.35
59951;BME280;45812;53.540;9.774;2023-04-20T01:56:50;102215.34;;;10.78;58.42
59951;BME280;45812;53.540;9.774;2023-04-20T01:59:16;102206.91;;;10.73;59.95
59951;BME280;45812;53.540;9.774;2023-04-20T02:01:41;102198.34;;;10.70;59.60
59951;BME280;45812;53.540;9.774;2023-04-20T02:04:07;102201.84;;;10.70;57.92
59951;BME280;45812;53.540;9.774;2023-04-20T02:06:33;102198.03;;;10.63;57.09
59951;BME280;45812;53.540;9.774;2023-04-20T02:08:58;102190.41;;;10.58;57.63
59951;BME280;45812;53.540;9.774;2023-04-20T02:11:23;102183.25;;;10.59;59.51
59951;BME280;45812;53.540;9.774;2023-04-20T02:13:48;102180.72;;;10.57;58.95
59951;BME280;45812;53.540;9.774;2023-04-20T02:16:13;102193.91;;;10.59;58.20
59951;BME280;45812;53.540;9.774;2023-04-20T02:18:39;102202.03;;;10.57;58.94
59951;BME280;45812;53.540;9.774;2023-04-20T02:21:05;102191.50;;;10.56;59.65
59951;BME280;45812;53.540;9.774;2023-04-20T02:23:30;102192.47;;;10.55;60.49
59951;BME280;45812;53.540;9.774;2023-04-20T02:25:55;102187.88;;;10.57;61.05
59951;BME280;45812;53.540;9.774;2023-04-20T02:28:20;102169.50;;;10.54;60.16
59951;BME280;45812;53.540;9.774;2023-04-20T02:30:46;102162.75;;;10.50;60.42
59951;BME280;45812;53.540;9.774;2023-04-20T02:33:11;102159.66;;;10.34;60.05
59951;BME280;45812;53.540;9.774;2023-04-20T02:35:36;102157.25;;;10.19;61.71
59951;BME280;45812;53.540;9.774;2023-04-20T02:38:02;102153.44;;;10.12;62.93
59951;BME280;45812;53.540;9.774;2023-04-20T02:40:27;102162.38;;;10.11;62.64
59951;BME280;45812;53.540;9.774;2023-04-20T02:42:52;102162.38;;;10.11;63.73
59951;BME280;45812;53.540;9.774;2023-04-20T02:45:17;102166.75;;;10.12;62.88
59951;BME280;45812;53.540;9.774;2023-04-20T02:47:43;102162.38;;;10.11;63.95
59951;BME280;45812;53.540;9.774;2023-04-20T02:50:08;102156.94;;;10.13;64.28
59951;BME280;45812;53.540;9.774;2023-04-20T02:52:34;102150.78;;;10.12;63.77
59951;BME280;45812;53.540;9.774;2023-04-20T02:54:59;102160.56;;;10.12;64.10
59951;BME280;45812;53.540;9.774;2023-04-20T02:57:25;102159.34;;;10.16;65.01
59951;BME280;45812;53.540;9.774;2023-04-20T02:59:50;102154.88;;;10.16;63.79
59951;BME280;45812;53.540;9.774;2023-04-20T03:02:15;102154.50;;;10.21;64.79
59951;BME280;45812;53.540;9.774;2023-04-20T03:04:41;102148.81;;;10.14;63.37
59951;BME280;45812;53.540;9.774;2023-04-20T03:07:06;102148.13;;;10.12;62.55
59951;BME280;45812;53.540;9.774;2023-04-20T03:09:33;102147.28;;;10.12;64.30
59951;BME280;45812;53.540;9.774;2023-04-20T03:11:59;102153.44;;;10.12;64.19
59951;BME280;45812;53.540;9.774;2023-04-20T03:14:26;102156.94;;;10.13;64.81
59951;BME280;45812;53.540;9.774;2023-04-20T03:16:51;102162.84;;;10.16;65.12
59951;BME280;45812;53.540;9.774;2023-04-20T03:19:17;102146.63;;;10.19;65.31
59951;BME280;45812;53.540;9.774;2023-04-20T03:21:43;102164.28;;;10.20;64.88
59951;BME280;45812;53.540;9.774;2023-04-20T03:24:08;102158.25;;;10.18;65.75
59951;BME280;45812;53.540;9.774;2023-04-20T03:26:33;102158.50;;;10.15;66.13
59951;BME280;45812;53.540;9.774;2023-04-20T03:29:00;102159.47;;;10.14;67.55
59951;BME280;45812;53.540;9.774;2023-04-20T03:31:25;102156.09;;;10.12;68.72
59951;BME280;45812;53.540;9.774;2023-04-20T03:33:51;102157.06;;;10.11;68.94
59951;BME280;45812;53.540;9.774;2023-04-20T03:36:16;102150.91;;;10.11;68.80
59951;BME280;45812;53.540;9.774;2023-04-20T03:38:41;102153.31;;;10.14;68.95
59951;BME280;45812;53.540;9.774;2023-04-20T03:41:07;102149.81;;;10.13;69.13
59951;BME280;45812;53.540;9.774;2023-04-20T03:43:33;102155.97;;;10.14;69.04
59951;BME280;45812;53.540;9.774;2023-04-20T03:45:58;102158.88;;;10.11;68.63
59951;BME280;45812;53.540;9.774;2023-04-20T03:48:23;102155.50;;;10.09;69.03
59951;BME280;45812;53.540;9.774;2023-04-20T03:50:48;102169.91;;;10.06;70.47
59951;BME280;45812;53.540;9.774;2023-04-20T03:53:14;102160.34;;;10.03;71.39
59951;BME280;45812;53.540;9.774;2023-04-20T03:55:39;102166.88;;;9.99;71.94
59951;BME280;45812;53.540;9.774;2023-04-20T03:58:04;102173.31;;;9.97;73.08
59951;BME280;45812;53.540;9.774;2023-04-20T04:00:31;102164.47;;;9.96;74.24
59951;BME280;45812;53.540;9.774;2023-04-20T04:02:56;102167.28;;;9.95;75.68
59951;BME280;45812;53.540;9.774;2023-04-20T04:05:21;102164.75;;;9.93;76.27
59951;BME280;45812;53.540;9.774;2023-04-20T04:07:46;102161.50;;;9.90;76.93
59951;BME280;45812;53.540;9.774;2023-04-20T04:10:12;102158.25;;;9.86;77.95
59951;BME280;45812;53.540;9.774;2023-04-20T04:12:37;102153.16;;;9.83;78.67
59951;BME280;45812;53.540;9.774;2023-04-20T04:15:03;102166.56;;;9.82;79.23
59951;BME280;45812;53.540;9.774;2023-04-20T04:17:29;102160.41;;;9.81;79.00
59951;BME280;45812;53.540;9.774;2023-04-20T04:19:54;102158.13;;;9.77;79.34
59951;BME280;45812;53.540;9.774;2023-04-20T04:22:19;102162.97;;;9.71;79.67
59951;BME280;45812;53.540;9.774;2023-04-20T04:24:44;102150.91;;;9.67;80.48
59951;BME280;45812;53.540;9.774;2023-04-20T04:27:10;102154.50;;;9.66;80.17
59951;BME280;45812;53.540;9.774;2023-04-20T04:29:38;102150.06;;;9.67;80.76
59951;BME280;45812;53.540;9.774;2023-04-20T04:32:05;102149.09;;;9.68;80.84
59951;BME280;45812;53.540;9.774;2023-04-20T04:34:32;102152.72;;;9.67;81.20
59951;BME280;45812;53.540;9.774;2023-04-20T04:36:58;102151.84;;;9.66;80.56
59951;BME280;45812;53.540;9.774;2023-04-20T04:39:25;102164.09;;;9.69;80.61
59951;BME280;45812;53.540;9.774;2023-04-20T04:41:51;102168.44;;;9.70;80.94
59951;BME280;45812;53.540;9.774;2023-04-20T04:44:16;102171.44;;;9.65;80.64
59951;BME280;45812;53.540;9.774;2023-04-20T04:46:41;102173.38;;;9.63;81.13
59951;BME280;45812;53.540;9.774;2023-04-20T04:49:09;102174.34;;;9.62;81.54
59951;BME280;45812;53.540;9.774;2023-04-20T04:51:35;102169.16;;;9.61;81.54
59951;BME280;45812;53.540;9.774;2023-04-20T04:54:00;102177.13;;;9.61;82.51
59951;BME280;45812;53.540;9.774;2023-04-20T04:56:26;102178.94;;;9.60;82.53
59951;BME280;45812;53.540;9.774;2023-04-20T04:58:51;102171.81;;;9.61;82.42
59951;BME280;45812;53.540;9.774;2023-04-20T05:01:16;102174.47;;;9.61;82.48
59951;BME280;45812;53.540;9.774;2023-04-20T05:03:41;102173.03;;;9.57;82.56
59951;BME280;45812;53.540;9.774;2023-04-20T05:06:07;102172.19;;;9.56;82.91
59951;BME280;45812;53.540;9.774;2023-04-20T05:08:33;102174.13;;;9.54;83.50
59951;BME280;45812;53.540;9.774;2023-04-20T05:10:58;102173.03;;;9.57;83.12
59951;BME280;45812;53.540;9.774;2023-04-20T05:13:23;102178.34;;;9.57;83.44
59951;BME280;45812;53.540;9.774;2023-04-20T05:15:48;102178.09;;;9.60;83.55
59951;BME280;45812;53.540;9.774;2023-04-20T05:18:14;102170.97;;;9.60;83.36
59951;BME280;45812;53.540;9.774;2023-04-20T05:20:39;102172.53;;;9.63;83.83
59951;BME280;45812;53.540;9.774;2023-04-20T05:23:04;102174.09;;;9.65;83.61
59951;BME280;45812;53.540;9.774;2023-04-20T05:25:30;102169.03;;;9.62;83.83
59951;BME280;45812;53.540;9.774;2023-04-20T05:27:56;102162.88;;;9.62;84.46
59951;BME280;45812;53.540;9.774;2023-04-20T05:30:22;102177.72;;;9.64;84.03
59951;BME280;45812;53.540;9.774;2023-04-20T05:32:47;102177.72;;;9.64;83.99
59951;BME280;45812;53.540;9.774;2023-04-20T05:35:12;102182.06;;;9.65;84.32
59951;BME280;45812;53.540;9.774;2023-04-20T05:37:38;102180.25;;;9.66;85.18
59951;BME280;45812;53.540;9.774;2023-04-20T05:40:03;102195.34;;;9.65;84.38
59951;BME280;45812;53.540;9.774;2023-04-20T05:42:29;102199.25;;;9.61;84.66
59951;BME280;45812;53.540;9.774;2023-04-20T05:44:54;102192.22;;;9.60;85.65
59951;BME280;45812;53.540;9.774;2023-04-20T05:47:19;102195.59;;;9.62;85.41
59951;BME280;45812;53.540;9.774;2023-04-20T05:49:45;102194.50;;;9.65;85.15
59951;BME280;45812;53.540;9.774;2023-04-20T05:52:10;102184.63;;;9.67;85.21
59951;BME280;45812;53.540;9.774;2023-04-20T05:54:35;102182.69;;;9.69;85.02
59951;BME280;45812;53.540;9.774;2023-04-20T05:57:01;102191.25;;;9.73;85.77
59951;BME280;45812;53.540;9.774;2023-04-20T05:59:26;102192.94;;;9.74;85.09
59951;BME280;45812;53.540;9.774;2023-04-20T06:01:51;102200.94;;;9.74;85.92
59951;BME280;45812;53.540;9.774;2023-04-20T06:04:16;102203.09;;;9.80;85.99
59951;BME280;45812;53.540;9.774;2023-04-20T06:06:42;102195.81;;;9.82;85.72
59951;BME280;45812;53.540;9.774;2023-04-20T06:09:07;102204.31;;;9.87;85.72
59951;BME280;45812;53.540;9.774;2023-04-20T06:11:33;102198.72;;;9.90;85.82
59951;BME280;45812;53.540;9.774;2023-04-20T06:13:58;102209.84;;;9.95;85.65
59951;BME280;45812;53.540;9.774;2023-04-20T06:16:24;102203.41;;;9.97;85.50
59951;BME280;45812;53.540;9.774;2023-04-20T06:18:49;102208.47;;;10.00;85.38
59951;BME280;45812;53.540;9.774;2023-04-20T06:21:15;102205.69;;;10.02;85.66
59951;BME280;45812;53.540;9.774;2023-04-20T06:23:41;102203.28;;;10.10;85.78
59951;BME280;45812;53.540;9.774;2023-04-20T06:26:07;102195.03;;;10.13;85.81
59951;BME280;45812;53.540;9.774;2023-04-20T06:28:34;102199.84;;;10.19;85.66
59951;BME280;45812;53.540;9.774;2023-04-20T06:31:01;102202.06;;;10.25;84.78
59951;BME280;45812;53.540;9.774;2023-04-20T06:33:26;102191.16;;;10.28;85.46
59951;BME280;45812;53.540;9.774;2023-04-20T06:35:51;102194.25;;;10.34;85.08
59951;BME280;45812;53.540;9.774;2023-04-20T06:38:19;102193.25;;;10.46;84.93
59951;BME280;45812;53.540;9.774;2023-04-20T06:40:44;102196.56;;;10.59;84.75
59951;BME280;45812;53.540;9.774;2023-04-20T06:43:09;102187.81;;;10.68;83.80
59951;BME280;45812;53.540;9.774;2023-04-20T06:45:34;102190.53;;;10.78;83.33
59951;BME280;45812;53.540;9.774;2023-04-20T06:48:00;102195.22;;;10.85;83.04
59951;BME280;45812;53.540;9.774;2023-04-20T06:50:25;102191.91;;;10.93;82.33
59951;BME280;45812;53.540;9.774;2023-04-20T06:52:50;102188.72;;;10.99;81.76
59951;BME280;45812;53.540;9.774;2023-04-20T06:55:16;102206.00;;;11.05;81.73
59951;BME280;45812;53.540;9.774;2023-04-20T06:57:41;102209.38;;;11.07;81.12
59951;BME280;45812;53.540;9.774;2023-04-20T07:00:09;102213.28;;;11.03;81.91
59951;BME280;45812;53.540;9.774;2023-04-20T07:02:42;102209.34;;;10.97;81.46
59951;BME280;45812;53.540;9.774;2023-04-20T07:05:08;102209.53;;;10.84;82.05
59951;BME280;45812;53.540;9.774;2023-04-20T07:07:33;102207.25;;;10.80;82.36
59951;BME280;45812;53.540;9.774;2023-04-20T07:09:58;102206.66;;;10.76;83.88
59951;BME280;45812;53.540;9.774;2023-04-20T07:12:23;102204.97;;;10.75;82.68
59951;BME280;45812;53.540;9.774;2023-04-20T07:14:49;102200.09;;;10.80;82.80
59951;BME280;45812;53.540;9.774;2023-04-20T07:17:14;102196.91;;;10.86;83.29
59951;BME280;45812;53.540;9.774;2023-04-20T07:19:39;102207.63;;;10.96;83.03
59951;BME280;45812;53.540;9.774;2023-04-20T07:22:05;102207.81;;;11.04;82.50
59951;BME280;45812;53.540;9.774;2023-04-20T07:24:30;102219.06;;;11.08;81.89
59951;BME280;45812;53.540;9.774;2023-04-20T07:26:55;102221.16;;;11.04;81.56
59951;BME280;45812;53.540;9.774;2023-04-20T07:29:21;102218.88;;;11.00;81.43
59951;BME280;45812;53.540;9.774;2023-04-20T07:31:46;102211.53;;;10.92;82.33
59951;BME280;45812;53.540;9.774;2023-04-20T07:34:11;102215.28;;;10.89;82.41
59951;BME280;45812;53.540;9.774;2023-04-20T07:36:37;102220.63;;;10.89;82.77
59951;BME280;45812;53.540;9.774;2023-04-20T07:39:03;102219.91;;;10.87;82.28
59951;BME280;45812;53.540;9.774;2023-04-20T07:41:29;102221.88;;;10.85;83.11
59951;BME280;45812;53.540;9.774;2023-04-20T07:43:54;102211.47;;;10.82;82.98
59951;BME280;45812;53.540;9.774;2023-04-20T07:46:22;102223.34;;;10.78;83.38
59951;BME280;45812;53.540;9.774;2023-04-20T07:48:48;102226.53;;;10.72;83.61
59951;BME280;45812;53.540;9.774;2023-04-20T07:51:13;102223.69;;;10.64;84.30
59951;BME280;45812;53.540;9.774;2023-04-20T07:53:38;102227.56;;;10.60;83.95
59951;BME280;45812;53.540;9.774;2023-04-20T07:56:04;102226.47;;;10.63;84.55
59951;BME280;45812;53.540;9.774;2023-04-20T07:58:29;102229.19;;;10.72;85.13
59951;BME280;45812;53.540;9.774;2023-04-20T08:00:54;102225.63;;;10.83;85.26
59951;BME280;45812;53.540;9.774;2023-04-20T08:03:19;102235.63;;;10.90;84.17
59951;BME280;45812;53.540;9.774;2023-04-20T08:05:45;102237.72;;;10.87;83.95
59951;BME280;45812;53.540;9.774;2023-04-20T08:08:10;102231.47;;;10.77;84.31
59951;BME280;45812;53.540;9.774;2023-04-20T08:10:35;102241.75;;;10.81;84.30
59951;BME280;45812;53.540;9.774;2023-04-20T08:13:01;102239.78;;;10.83;84.96
59951;BME280;45812;53.540;9.774;2023-04-20T08:15:26;102236.47;;;10.91;84.69
59951;BME280;45812;53.540;9.774;2023-04-20T08:17:51;102245.25;;;11.03;84.22
59951;BME280;45812;53.540;9.774;2023-04-20T08:20:17;102259.03;;;11.08;83.19
59951;BME280;45812;53.540;9.774;2023-04-20T08:22:42;102259.56;;;11.02;84.37
59951;BME280;45812;53.540;9.774;2023-04-20T08:25:08;102253.13;;;11.04;84.03
59951;BME280;45812;53.540;9.774;2023-04-20T08:27:33;102253.25;;;11.03;83.93
59951;BME280;45812;53.540;9.774;2023-04-20T08:29:58;102248.41;;;10.97;83.82
59951;BME280;45812;53.540;9.774;2023-04-20T08:32:25;102244.06;;;10.96;84.33
59951;BME280;45812;53.540;9.774;2023-04-20T08:34:51;102253.03;;;10.95;83.91
59951;BME280;45812;53.540;9.774;2023-04-20T08:37:17;102257.66;;;10.92;84.00
59951;BME280;45812;53.540;9.774;2023-04-20T08:39:42;102267.34;;;10.93;83.74
59951;BME280;45812;53.540;9.774;2023-04-20T08:42:07;102258.31;;;10.85;84.33
59951;BME280;45812;53.540;9.774;2023-04-20T08:44:33;102248.75;;;10.82;84.61
59951;BME280;45812;53.540;9.774;2023-04-20T08:46:58;102250.91;;;10.88;85.00
59951;BME280;45812;53.540;9.774;2023-04-20T08:49:26;102246.28;;;10.90;84.83
59951;BME280;45812;53.540;9.774;2023-04-20T08:51:52;102238.75;;;10.96;84.69
59951;BME280;45812;53.540;9.774;2023-04-20T08:54:18;102243.56;;;11.02;84.92
59951;BME280;45812;53.540;9.774;2023-04-20T08:56:45;102249.88;;;11.21;84.52
59951;BME280;45812;53.540;9.774;2023-04-20T08:59:10;102250.28;;;11.47;83.95
59951;BME280;45812;53.540;9.774;2023-04-20T09:01:38;102250.94;;;11.70;82.74
59951;BME280;45812;53.540;9.774;2023-04-20T09:04:20;102252.63;;;12.02;82.33
59951;BME280;45812;53.540;9.774;2023-04-20T09:06:47;102266.03;;;12.31;80.64
59951;BME280;45812;53.540;9.774;2023-04-20T09:09:14;102247.91;;;12.63;80.02
59951;BME280;45812;53.540;9.774;2023-04-20T09:11:39;102254.38;;;12.90;78.69
59951;BME280;45812;53.540;9.774;2023-04-20T09:14:12;102259.16;;;13.06;76.90
59951;BME280;45812;53.540;9.774;2023-04-20T09:16:49;102258.69;;;13.29;76.15
59951;BME280;45812;53.540;9.774;2023-04-20T09:19:24;102260.06;;;13.43;75.03
59951;BME280;45812;53.540;9.774;2023-04-20T09:21:54;102268.75;;;13.55;75.15
59951;BME280;45812;53.540;9.774;2023-04-20T09:24:21;102260.53;;;13.66;74.55
59951;BME280;45812;53.540;9.774;2023-04-20T09:26:46;102261.44;;;13.84;73.69
59951;BME280;45812;53.540;9.774;2023-04-20T09:29:17;102263.47;;;14.00;73.72
59951;BME280;45812;53.540;9.774;2023-04-20T09:31:42;102273.34;;;14.00;73.28
59951;BME280;45812;53.540;9.774;2023-04-20T09:34:07;102272.09;;;13.94;72.84
59951;BME280;45812;53.540;9.774;2023-04-20T09:36:40;102272.00;;;13.86;73.51
59951;BME280;45812;53.540;9.774;2023-04-20T09:39:15;102273.88;;;13.76;72.95
59951;BME280;45812;53.540;9.774;2023-04-20T09:41:41;102279.28;;;13.66;72.96
59951;BME280;45812;53.540;9.774;2023-04-20T09:44:07;102272.84;;;13.49;73.12
59951;BME280;45812;53.540;9.774;2023-04-20T09:46:35;102264.44;;;13.34;74.55
59951;BME280;45812;53.540;9.774;2023-04-20T09:49:03;102262.81;;;13.24;74.73
59951;BME280;45812;53.540;9.774;2023-04-20T09:51:32;102267.44;;;13.22;75.52
59951;BME280;45812;53.540;9.774;2023-04-20T09:53:58;102262.44;;;13.46;75.52
59951;BME280;45812;53.540;9.774;2023-04-20T09:56:25;102253.91;;;13.98;74.37
59951;BME280;45812;53.540;9.774;2023-04-20T09:58:52;102245.56;;;14.46;73.45
59951;BME280;45812;53.540;9.774;2023-04-20T10:01:17;102253.81;;;15.32;70.78
59951;BME280;45812;53.540;9.774;2023-04-20T10:03:43;102256.72;;;16.15;68.64
59951;BME280;45812;53.540;9.774;2023-04-20T10:06:23;102252.50;;;16.95;66.13
59951;BME280;45812;53.540;9.774;2023-04-20T10:08:49;102238.47;;;17.32;64.69
59951;BME280;45812;53.540;9.774;2023-04-20T10:11:38;102254.25;;;17.51;62.34
59951;BME280;45812;53.540;9.774;2023-04-20T10:14:18;102258.94;;;17.58;60.04
59951;BME280;45812;53.540;9.774;2023-04-20T10:16:44;102266.06;;;17.26;60.44
59951;BME280;45812;53.540;9.774;2023-04-20T10:19:10;102264.09;;;16.95;61.01
59951;BME280;45812;53.540;9.774;2023-04-20T10:21:47;102272.28;;;16.61;61.57
59951;BME280;45812;53.540;9.774;2023-04-20T10:24:14;102262.97;;;16.31;61.55
59951;BME280;45812;53.540;9.774;2023-04-20T10:26:42;102273.00;;;16.05;62.52
59951;BME280;45812;53.540;9.774;2023-04-20T10:29:09;102271.91;;;15.82;63.41
59951;BME280;45812;53.540;9.774;2023-04-20T10:31:37;102266.81;;;15.70;64.77
59951;BME280;45812;53.540;9.774;2023-04-20T10:34:03;102272.53;;;15.75;65.29
59951;BME280;45812;53.540;9.774;2023-04-20T10:36:31;102271.53;;;15.77;65.56
59951;BME280;45812;53.540;9.774;2023-04-20T10:38:58;102259.53;;;15.97;65.66
59951;BME280;45812;53.540;9.774;2023-04-20T10:41:25;102262.41;;;16.70;63.02
59951;BME280;45812;53.540;9.774;2023-04-20T10:43:51;102261.97;;;17.46;59.94
59951;BME280;45812;53.540;9.774;2023-04-20T10:46:21;102251.53;;;17.99;58.45
59951;BME280;45812;53.540;9.774;2023-04-20T10:48:59;102268.16;;;18.41;56.35
59951;BME280;45812;53.540;9.774;2023-04-20T10:51:28;102258.13;;;18.81;54.60
59951;BME280;45812;53.540;9.774;2023-04-20T10:54:12;102255.81;;;18.93;54.46
59951;BME280;45812;53.540;9.774;2023-04-20T10:56:39;102253.25;;;18.99;53.20
59951;BME280;45812;53.540;9.774;2023-04-20T10:59:06;102258.91;;;19.04;52.57
59951;BME280;45812;53.540;9.774;2023-04-20T11:01:32;102258.22;;;18.88;51.11
59951;BME280;45812;53.540;9.774;2023-04-20T11:03:57;102260.38;;;18.46;53.04
59951;BME280;45812;53.540;9.774;2023-04-20T11:06:23;102264.47;;;18.11;52.60
59951;BME280;45812;53.540;9.774;2023-04-20T11:08:48;102265.00;;;17.68;54.49
59951;BME280;45812;53.540;9.774;2023-04-20T11:11:20;102263.53;;;17.33;55.81
59951;BME280;45812;53.540;9.774;2023-04-20T11:13:48;102260.06;;;17.00;57.54
59951;BME280;45812;53.540;9.774;2023-04-20T11:16:15;102259.88;;;16.69;57.95
59951;BME280;45812;53.540;9.774;2023-04-20T11:18:52;102267.03;;;16.44;59.32
59951;BME280;45812;53.540;9.774;2023-04-20T11:21:18;102260.63;;;16.20;59.47
59951;BME280;45812;53.540;9.774;2023-04-20T11:23:44;102256.38;;;16.01;60.40
59951;BME280;45812;53.540;9.774;2023-04-20T11:26:09;102258.47;;;15.82;61.71
59951;BME280;45812;53.540;9.774;2023-04-20T11:28:36;102264.94;;;15.63;63.00
59951;BME280;45812;53.540;9.774;2023-04-20T11:31:01;102263.47;;;15.51;63.61
59951;BME280;45812;53.540;9.774;2023-04-20T11:33:28;102254.28;;;15.53;63.30
59951;BME280;45812;53.540;9.774;2023-04-20T11:35:55;102253.59;;;15.51;64.37
59951;BME280;45812;53.540;9.774;2023-04-20T11:38:32;102248.00;;;15.62;63.40
59951;BME280;45812;53.540;9.774;2023-04-20T11:40:58;102252.50;;;15.62;62.68
59951;BME280;45812;53.540;9.774;2023-04-20T11:43:31;102250.06;;;15.51;62.95
59951;BME280;45812;53.540;9.774;2023-04-20T11:45:57;102258.84;;;15.35;63.61
59951;BME280;45812;53.540;9.774;2023-04-20T11:48:22;102249.53;;;15.21;64.31
59951;BME280;45812;53.540;9.774;2023-04-20T11:50:48;102255.22;;;15.18;64.92
59951;BME280;45812;53.540;9.774;2023-04-20T11:53:13;102253.47;;;15.27;64.62
59951;BME280;45812;53.540;9.774;2023-04-20T11:55:39;102255.66;;;15.31;64.56
59951;BME280;45812;53.540;9.774;2023-04-20T11:58:05;102259.06;;;15.41;64.42
59951;BME280;45812;53.540;9.774;2023-04-20T12:00:30;102254.16;;;15.37;64.36
59951;BME280;45812;53.540;9.774;2023-04-20T12:02:56;102251.50;;;15.37;64.03
59951;BME280;45812;53.540;9.774;2023-04-20T12:05:21;102256.19;;;15.35;64.21
59951;BME280;45812;53.540;9.774;2023-04-20T12:07:46;102257.50;;;15.31;64.61
59951;BME280;45812;53.540;9.774;2023-04-20T12:10:12;102264.50;;;15.50;64.07
59951;BME280;45812;53.540;9.774;2023-04-20T12:12:37;102265.44;;;15.66;63.48
59951;BME280;45812;53.540;9.774;2023-04-20T12:15:03;102261.44;;;15.70;63.77
59951;BME280;45812;53.540;9.774;2023-04-20T12:17:28;102262.84;;;15.57;62.84
59951;BME280;45812;53.540;9.774;2023-04-20T12:19:54;102264.81;;;15.47;63.69
59951;BME280;45812;53.540;9.774;2023-04-20T12:22:19;102275.53;;;15.47;65.74
59951;BME280;45812;53.540;9.774;2023-04-20T12:24:44;102275.91;;;15.52;64.23
59951;BME280;45812;53.540;9.774;2023-04-20T12:27:09;102279.94;;;15.56;64.15
59951;BME280;45812;53.540;9.774;2023-04-20T12:29:35;102274.56;;;15.56;64.35
59951;BME280;45812;53.540;9.774;2023-04-20T12:32:00;102273.59;;;15.31;64.16
59951;BME280;45812;53.540;9.774;2023-04-20T12:34:25;102277.53;;;15.19;64.75
59951;BME280;45812;53.540;9.774;2023-04-20T12:36:51;102279.47;;;15.08;64.27
59951;BME280;45812;53.540;9.774;2023-04-20T12:39:16;102279.34;;;14.92;65.62
59951;BME280;45812;53.540;9.774;2023-04-20T12:41:41;102273.38;;;14.80;66.51
59951;BME280;45812;53.540;9.774;2023-04-20T12:44:06;102273.47;;;14.71;68.06
59951;BME280;45812;53.540;9.774;2023-04-20T12:46:32;102267.47;;;14.59;68.33